Latest Weather Observations for Cessnock Airport

IDN60801

Issued at 9:05 pm EST Monday 1 September 2014 (issued every 30 minutes, with the page automatically refreshed every 10 minutes)

About weather observations | Map of weather stations | Latest weather observations for NSW | Other Formats
Station Details ID: 061260 Name: CESSNOCK AIRPORT AWS Lat: -32.79 Lon: 151.34 Height: 61.0 m
Data from the previous 72 hours. | See also: Recent months at Cessnock Airport
Date/Time
EST
Temp
°C
App
Temp
°C
Dew
Point
Rel
Hum
%
Delta-T
°C
Wind Press
QNH
hPa
Press
MSL
hPa
Rain
since 9 am
mm
Dir
 
Spd
km/h
Gust
km/h
Spd
kts
Gust
kts
01/09:00pm 11.3 10.8 8.0 80 1.6 WNW 0 0 0 0 1012.4 1012.3 0.0
01/08:30pm 11.7 11.3 8.2 79 1.7 NW 0 0 0 0 1012.5 - 0.0
01/08:00pm 11.6 11.1 7.7 77 1.9 CALM 0 0 0 0 1012.4 1012.3 0.0
01/07:30pm 13.0 12.7 8.7 75 2.2 CALM 0 0 0 0 1012.3 - 0.0
01/07:00pm 13.8 12.6 8.2 69 2.8 WSW 4 7 2 4 1012.0 1011.9 0.0
01/06:30pm 16.5 15.6 7.7 56 4.4 WNW 2 6 1 3 1011.7 - 0.0
01/06:00pm 18.7 16.8 6.5 45 6.1 NNW 6 9 3 5 1011.6 1011.5 0.0
01/05:30pm 20.0 17.3 7.4 44 6.5 N 11 17 6 9 1011.4 - 0.0
01/05:00pm 20.9 18.8 8.2 44 6.6 N 9 13 5 7 1011.4 1011.3 0.0
01/04:30pm 21.6 18.1 7.4 40 7.3 NNW 15 26 8 14 1011.3 - 0.0
01/04:00pm 22.5 19.1 7.5 38 7.8 NNW 15 24 8 13 1011.2 1011.1 0.0
01/03:30pm 22.5 18.6 7.1 37 8.0 NNW 17 26 9 14 1011.3 - 0.0
01/03:00pm 22.0 17.4 5.4 34 8.3 NW 19 32 10 17 1011.5 1011.4 0.0
01/02:30pm 22.7 17.8 5.2 32 8.8 NW 20 32 11 17 1011.9 - 0.0
01/02:00pm 21.8 17.1 6.1 36 7.9 NNW 20 32 11 17 1012.3 1012.2 0.0
01/01:30pm 21.5 16.1 4.6 33 8.3 NNW 22 33 12 18 1013.0 - 0.0
01/01:00pm 21.8 16.6 5.7 35 8.1 NW 22 35 12 19 1013.3 1013.3 0.0
01/12:30pm 21.8 17.6 7.6 40 7.4 WNW 19 30 10 16 1013.8 - 0.0
01/12:00pm 21.4 17.5 6.9 39 7.4 NW 17 28 9 15 1014.3 1014.3 0.0
01/11:30am 20.4 17.1 8.1 45 6.4 NNW 15 24 8 13 1014.6 - 0.0
01/11:00am 19.5 16.5 9.4 52 5.4 NW 15 20 8 11 1015.5 1015.5 0.0
01/10:30am 18.0 14.7 9.6 58 4.4 N 17 24 9 13 1015.9 - 0.0
01/10:00am 16.6 12.9 9.3 62 3.8 NNW 19 24 10 13 1016.6 1016.6 0.0
01/09:30am 15.6 12.5 10.2 70 2.8 NNW 17 22 9 12 1017.2 - 0.0
01/09:00am 14.7 13.2 11.8 83 1.6 NNW 11 20 6 11 1017.5 1017.6 0.0
01/08:30am 12.4 13.2 12.4 100 0.0 CALM 0 0 0 0 1017.7 - 0.0
01/08:00am 9.8 9.0 9.8 100 0.0 WNW 4 7 2 4 1017.6 1017.7 0.0
01/07:30am 8.7 8.4 8.7 100 0.0 CALM 0 0 0 0 1017.5 - 0.0
01/07:00am 7.2 6.6 7.2 100 0.0 CALM 0 4 0 2 1017.4 1017.5 0.0
01/06:30am 6.7 5.9 6.7 100 0.0 CALM 0 0 0 0 1017.2 - 0.0
01/06:00am 6.4 5.6 6.4 100 0.0 W 0 0 0 0 1017.0 1017.1 0.0
01/05:30am 6.6 5.1 6.6 100 0.0 W 4 6 2 3 1016.7 - 0.0
01/05:00am 6.3 5.5 6.3 100 0.0 CALM 0 0 0 0 1016.5 1016.6 0.0
01/04:30am 6.3 5.5 6.3 100 0.0 CALM 0 0 0 0 1016.2 - 0.0
01/04:00am 6.9 6.2 6.9 100 0.0 CALM 0 0 0 0 1016.0 1016.0 0.0
01/03:30am 6.9 6.2 6.9 100 0.0 CALM 0 0 0 0 1016.0 - 0.0
01/03:00am 6.5 5.7 6.5 100 0.0 CALM 0 0 0 0 1016.1 1016.1 0.0
01/02:30am 6.4 5.2 6.4 100 0.0 S 2 6 1 3 1016.6 - 0.0
01/02:00am 6.4 5.6 6.4 100 0.0 CALM 0 0 0 0 1016.7 1016.8 0.0
01/01:30am 7.2 6.6 7.2 100 0.0 CALM 0 0 0 0 1017.0 - 0.0
01/01:00am 7.2 6.6 7.2 100 0.0 CALM 0 0 0 0 1017.3 1017.4 0.0
01/12:30am 7.6 7.0 7.6 100 0.0 CALM 0 0 0 0 1017.3 - 0.0
01/12:00am 8.2 7.0 8.2 100 0.0 SSE 4 7 2 4 1017.6 1017.7 0.0
 
Date/Time
EST
Temp
°C
App
Temp
°C
Dew
Point
Rel
Hum
%
Delta-T
°C
Wind Press
QNH
hPa
Press
MSL
hPa
Rain
since 9 am
mm
Dir
 
Spd
km/h
Gust
km/h
Spd
kts
Gust
kts
31/11:30pm 8.3 7.9 8.3 100 0.0 CALM 0 6 0 3 1017.6 - 0.0
31/11:00pm 9.7 8.5 9.7 100 0.0 SSW 6 7 3 4 1017.8 1017.9 0.0
31/10:30pm 9.9 8.6 9.9 100 0.0 SW 7 9 4 5 1017.8 - 0.0
31/10:00pm 10.4 9.2 10.4 100 0.0 SW 7 11 4 6 1018.1 1018.2 0.0
31/09:30pm 10.2 9.1 9.9 98 0.2 SSW 6 9 3 5 1018.0 - 0.0
31/09:00pm 10.9 9.4 10.6 98 0.2 WSW 9 13 5 7 1018.1 1018.2 0.0
31/08:30pm 11.3 9.2 11.0 98 0.2 WSW 13 13 7 7 1018.0 - 0.0
31/08:00pm 11.6 10.5 10.8 95 0.4 WSW 7 9 4 5 1017.8 1017.9 0.0
31/07:30pm 11.8 10.3 9.0 83 1.4 WSW 7 11 4 6 1017.6 - 0.0
31/07:00pm 13.1 12.2 9.4 78 1.9 SSW 4 7 2 4 1017.4 1017.5 0.0
31/06:30pm 15.3 14.7 10.5 73 2.5 E 4 7 2 4 1017.1 - 0.0
31/06:00pm 16.1 15.0 10.6 70 2.9 E 7 15 4 8 1017.0 1017.1 0.0
31/05:30pm 17.3 14.8 10.9 66 3.4 E 15 19 8 10 1016.8 - 0.0
31/05:00pm 18.8 17.2 8.7 52 5.3 N 7 9 4 5 1016.4 1016.4 0.0
31/04:30pm 20.3 18.5 7.3 43 6.7 NNE 6 9 3 5 1016.3 - 0.0
31/04:00pm 20.5 18.5 8.5 46 6.3 N 9 11 5 6 1016.4 1016.4 0.0
31/03:30pm 19.5 18.7 8.2 48 5.9 NNW 2 7 1 4 1016.5 - 0.0
31/03:00pm 20.1 18.3 7.8 45 6.3 NE 7 9 4 5 1016.5 1016.6 0.0
31/02:30pm 19.4 19.0 8.1 48 5.8 CALM 0 0 0 0 1016.8 - 0.0
31/02:00pm 19.4 18.0 8.7 50 5.6 NNW 6 9 3 5 1017.1 1017.2 0.0
31/01:30pm 20.8 19.1 8.4 45 6.5 NW 7 13 4 7 1017.4 - 0.0
31/01:00pm 19.7 18.0 9.9 53 5.2 SW 9 13 5 7 1017.8 1017.9 0.0
31/12:30pm 19.7 18.3 9.0 50 5.6 SSW 6 9 3 5 1018.2 - 0.0
31/12:00pm 19.9 18.1 9.5 51 5.5 WSW 9 19 5 10 1018.7 1018.8 0.0
31/11:30am 19.8 18.7 10.0 53 5.3 SW 6 9 3 5 1019.1 - 0.0
31/11:00am 18.5 16.3 9.3 55 4.8 SSW 11 17 6 9 1019.5 1019.6 0.0
31/10:30am 18.0 15.5 9.6 58 4.4 S 13 20 7 11 1019.9 - 0.0
31/10:00am 17.2 14.1 8.9 58 4.3 S 15 19 8 10 1020.1 1020.2 0.0
31/09:30am 17.2 13.9 9.6 61 4.0 S 17 20 9 11 1020.3 - 0.0
31/09:00am 16.5 13.9 9.2 62 3.8 SW 13 20 7 11 1020.5 1020.6 0.0
31/08:30am 16.2 14.3 9.2 63 3.6 WSW 9 15 5 8 1020.7 - 0.0
31/08:00am 15.4 14.0 9.5 68 3.0 SW 7 11 4 6 1020.8 1020.9 0.0
31/07:30am 14.4 13.0 9.4 72 2.6 W 7 11 4 6 1020.5 - 0.0
31/07:00am 11.7 10.3 9.6 87 1.1 N 7 9 4 5 1020.3 1020.4 0.0
31/06:30am 11.0 9.7 7.7 80 1.6 WSW 4 7 2 4 1020.1 - 0.0
31/06:00am 11.9 10.1 8.0 77 1.9 SSW 7 11 4 6 1019.9 1020.0 0.0
31/05:30am 12.8 11.2 8.9 77 2.0 SSW 7 13 4 7 1019.6 - 0.0
31/05:00am 13.2 10.9 9.1 76 2.1 SW 11 15 6 8 1019.5 1019.6 0.0
31/04:30am 13.1 11.3 9.5 79 1.8 SSW 9 13 5 7 1019.6 - 0.0
31/04:00am 12.7 11.2 9.3 80 1.7 SSW 7 11 4 6 1019.6 1019.7 0.0
31/03:30am 12.9 10.7 9.4 79 1.8 SW 11 15 6 8 1019.8 - 0.0
31/03:00am 12.4 10.9 9.1 80 1.7 SW 7 11 4 6 1019.8 1019.9 0.0
31/02:30am 12.8 10.5 9.1 78 1.9 SW 11 20 6 11 1019.9 - 0.0
31/02:00am 13.2 11.0 9.5 78 1.9 SW 11 15 6 8 1020.1 1020.2 0.0
31/01:30am 12.8 11.0 9.3 79 1.8 WSW 9 13 5 7 1020.3 - 0.0
31/01:00am 13.0 11.1 9.1 77 2.0 SW 9 17 5 9 1020.3 1020.4 0.0
31/12:30am 13.4 11.6 9.5 77 2.0 SW 9 15 5 8 1020.5 - 0.0
31/12:00am 13.5 11.7 9.6 77 2.0 SW 9 13 5 7 1020.7 1020.8 0.0
 
Date/Time
EST
Temp
°C
App
Temp
°C
Dew
Point
Rel
Hum
%
Delta-T
°C
Wind Press
QNH
hPa
Press
MSL
hPa
Rain
since 9 am
mm
Dir
 
Spd
km/h
Gust
km/h
Spd
kts
Gust
kts
30/11:30pm 13.5 11.4 9.6 77 2.0 SSW 11 20 6 11 1020.8 - 0.0
30/11:00pm 13.6 11.8 9.5 76 2.1 SW 9 15 5 8 1020.9 1021.0 0.0
30/10:30pm 14.0 11.1 9.6 75 2.3 SW 15 19 8 10 1021.0 - 0.0
30/10:00pm 14.3 11.9 9.9 75 2.3 SW 13 20 7 11 1021.0 1021.1 0.0
30/09:30pm 14.2 12.5 9.8 75 2.3 SW 9 17 5 9 1021.1 - 0.0
30/09:00pm 14.5 12.5 10.1 75 2.3 SSW 11 20 6 11 1021.2 1021.3 0.0
30/08:30pm 14.3 11.9 9.9 75 2.3 SSW 13 19 7 10 1021.2 - 0.0
30/08:00pm 14.6 12.2 10.2 75 2.3 SW 13 20 7 11 1021.1 1021.2 0.0
30/07:30pm 14.4 12.5 10.4 77 2.1 SW 11 20 6 11 1021.1 - 0.0
30/07:00pm 13.8 11.3 9.8 77 2.1 SW 13 17 7 9 1020.9 1021.0 0.0
30/06:30pm 14.2 12.5 10.0 76 2.2 SSW 9 13 5 7 1020.8 - 0.0
30/06:00pm 14.4 12.4 10.2 76 2.2 SW 11 17 6 9 1020.7 1020.8 0.0
30/05:30pm 14.7 12.4 10.3 75 2.3 SW 13 19 7 10 1020.6 - 0.0
30/05:00pm 15.6 13.0 10.6 72 2.6 SW 15 24 8 13 1020.5 1020.6 0.0
30/04:30pm 16.0 12.6 10.7 71 2.8 SSW 19 30 10 16 1020.4 - 0.0
30/04:00pm 16.4 12.8 10.5 68 3.1 SSW 20 30 11 16 1020.4 1020.5 0.0
30/03:30pm 16.5 14.0 11.2 71 2.9 SW 15 26 8 14 1020.6 - 0.0
30/03:00pm 16.7 13.1 10.5 67 3.3 SSW 20 30 11 16 1020.6 1020.7 0.0
30/02:30pm 17.0 12.8 11.1 68 3.2 SSW 24 35 13 19 1020.8 - 0.0
30/02:00pm 16.1 11.6 10.0 67 3.2 SSW 24 33 13 18 1021.0 1021.1 0.0
30/01:30pm 16.1 11.5 9.8 66 3.3 SSW 24 32 13 17 1021.1 - 0.0
30/01:00pm 17.0 13.0 10.4 65 3.5 SSW 22 33 12 18 1021.1 1021.2 0.0
30/12:30pm 16.5 12.3 9.9 65 3.5 SSW 22 37 12 20 1021.4 - 0.0
30/12:00pm 16.7 12.7 10.3 66 3.4 SSW 22 30 12 16 1021.6 1021.7 0.0
30/11:30am 16.0 11.1 9.9 67 3.2 SSW 26 39 14 21 1022.0 - 0.0
30/11:00am 15.8 11.0 9.0 64 3.5 SSW 24 39 13 21 1022.3 1022.4 0.0
30/10:30am 14.9 10.8 8.8 67 3.1 SW 20 33 11 18 1022.4 - 0.0
30/10:00am 15.2 10.1 9.3 68 3.0 SSW 26 37 14 20 1022.4 1022.5 0.0
30/09:30am 14.0 9.4 8.2 68 2.9 S 22 35 12 19 1022.6 - 0.0
30/09:00am 14.6 10.0 8.3 66 3.2 SSW 22 35 12 19 1022.4 1022.5 0.0
30/08:30am 13.7 9.7 8.1 69 2.8 SSW 19 30 10 16 1022.6 - 0.0
30/08:00am 13.2 9.4 7.4 68 2.8 SSW 17 30 9 16 1022.4 1022.5 0.0
30/07:30am 13.0 8.7 7.0 67 2.9 SSW 19 26 10 14 1022.4 - 0.0
30/07:00am 12.9 8.5 6.7 66 3.0 SSW 19 26 10 14 1022.2 1022.3 0.0
30/06:30am 12.4 7.8 6.7 68 2.7 SSW 20 30 11 16 1022.0 - 0.0
30/06:00am 12.5 7.9 6.5 67 2.9 SSW 20 28 11 15 1021.5 1021.6 0.0
30/05:30am 12.3 8.9 6.1 66 2.9 SSW 13 26 7 14 1021.4 - 0.0
30/05:00am 12.5 8.3 5.7 63 3.2 SSW 17 26 9 14 1021.3 1021.4 0.0
30/04:30am 12.4 8.1 5.3 62 3.3 SSW 17 28 9 15 1021.1 - 0.0
30/04:00am 12.5 8.6 5.4 62 3.3 SSW 15 24 8 13 1021.2 1021.3 0.0
30/03:30am 12.8 8.9 5.2 60 3.5 SW 15 28 8 15 1021.3 - 0.0
30/03:00am 12.5 8.6 5.2 61 3.4 SSW 15 24 8 13 1021.5 1021.6 0.0
30/02:30am 12.6 8.6 5.1 60 3.5 SW 15 24 8 13 1021.7 - 0.0
30/02:00am 12.6 9.0 5.1 60 3.5 SSW 13 24 7 13 1021.8 1021.9 0.0
30/01:30am 12.7 8.8 5.4 61 3.4 SSW 15 26 8 14 1021.9 - 0.0
30/01:00am 12.8 8.6 5.5 61 3.4 SSW 17 30 9 16 1022.2 1022.3 0.0
30/12:30am 12.7 8.1 5.4 61 3.4 SSW 19 32 10 17 1022.4 - 0.0
30/12:00am 12.6 8.4 5.8 63 3.2 SSW 17 26 9 14 1022.9 1022.9 0.0
 
Date/Time
EST
Temp
°C
App
Temp
°C
Dew
Point
Rel
Hum
%
Delta-T
°C
Wind Press
QNH
hPa
Press
MSL
hPa
Rain
since 9 am
mm
Dir
 
Spd
km/h
Gust
km/h
Spd
kts
Gust
kts
29/11:30pm 12.6 8.5 6.0 64 3.1 SSW 17 26 9 14 1023.2 - 0.0
29/11:00pm 12.9 8.4 6.0 63 3.3 SW 19 26 10 14 1023.0 1023.0 0.0
29/10:30pm 12.7 8.6 6.1 64 3.1 SSW 17 26 9 14 1023.4 - 0.0
29/10:00pm 12.8 8.8 6.8 67 2.9 SSW 17 28 9 15 1023.4 1023.4 0.0
29/09:30pm 12.6 9.3 6.6 67 2.9 SSW 13 22 7 12 1023.5 - 0.0

Other Formats:

Comma delimited format used in spreadsheet applications
http://www.bom.gov.au/fwo/IDN60801/IDN60801.95771.axf

JavaScript Object Notation format (JSON) in row-major order
http://www.bom.gov.au/fwo/IDN60801/IDN60801.95771.json